Dades meteomassalio
Diari Summary for Setembre 28, 2017 Units:  Metric    English   Both
« Previous Day
Next Day »
Diari Semanal Mensual Anual Personalitzat
  Maxima: Minima: Mijana:
Temperatura: -17.8 °C -12.6 °C -8.2 °C
Rosada: -17.8 °C -13.3 °C -11.1 °C
Humitat: Humidity % 48 % 73 %
Velocitat del vent: 0 km/h 0 km/h 8.5 km/h
Racha vent: 0 km/h - -
Vent:- - SSE
Pressio: 0 hPa 34645.6 hPa -
Pluja: 0 mm    
Historical Graphs
 
 
Tabular Data for Setembre 28, 2017
Time Temperature Dew Point Pressure Wind Wind Speed Wind Gust Humidity Rainfall Rate (Hourly) solar Conditions
-17.8 °C -17.8 °C 0 hPa Calm     Humidity % 0 mm SolarRadiationWatts/m^2 W/m2 Conditions
00:02 -9.1 °C -11.3 °C 34669.3 hPa Calm     78 % 0 mm 0.0 W/m2 CLR
00:07 -9.4 °C -11.4 °C 34669.3 hPa Calm     79 % 0 mm 0.0 W/m2 CLR
00:12 -9.4 °C -11.4 °C 34682.8 hPa Calm     79 % 0 mm 0.0 W/m2 CLR
00:17 -9.4 °C -11.4 °C 34682.8 hPa Calm     79 % 0 mm 0.0 W/m2 CLR
00:22 -9.4 °C -11.6 °C 34669.3 hPa Calm     78 % 0 mm 0.0 W/m2 CLR
00:27 -9.8 °C -11.8 °C 34669.3 hPa Calm     78 % 0 mm 0.0 W/m2 CLR
00:32 -9.8 °C -11.8 °C 34682.8 hPa Calm     79 % 0 mm 0.0 W/m2 CLR
00:37 -10.1 °C -11.8 °C 34682.8 hPa Calm     81 % 0 mm 0.0 W/m2 CLR
00:42 -10.1 °C -11.8 °C 34682.8 hPa Calm     81 % 0 mm 0.0 W/m2 CLR
00:47 -10.1 °C -11.9 °C 34682.8 hPa Calm     80 % 0 mm 0.0 W/m2 CLR
00:52 -10.4 °C -12.3 °C 34682.8 hPa Calm     80 % 0 mm 0.0 W/m2 CLR
00:57 -10.4 °C -12.1 °C 34682.8 hPa Calm     81 % 0 mm 0.0 W/m2 CLR
01:02 -10.4 °C -12.1 °C 34682.8 hPa Calm     81 % 0 mm 0.0 W/m2 CLR
01:07 -10.4 °C -12.1 °C 34682.8 hPa Calm     81 % 0 mm 0.0 W/m2 CLR
01:12 -10.4 °C -12.1 °C 34682.8 hPa Calm     82 % 0 mm 0.0 W/m2 CLR
01:17 -10.4 °C -12.1 °C 34682.8 hPa Calm     82 % 0 mm 0.0 W/m2 CLR
01:22 -10.4 °C -11.9 °C 34682.8 hPa Calm     83 % 0 mm 0.0 W/m2 CLR
01:27 -10.7 °C -12.1 °C 34682.8 hPa Calm     84 % 0 mm 0.0 W/m2 CLR
01:32 -10.7 °C -12.1 °C 34682.8 hPa Calm     84 % 0 mm 0.0 W/m2 CLR
01:37 -10.7 °C -12.1 °C 34682.8 hPa Calm     84 % 0 mm 0.0 W/m2 CLR
01:42 -10.7 °C -12.1 °C 34682.8 hPa Calm     84 % 0 mm 0.0 W/m2 CLR
01:47 -11 °C -12.3 °C 34682.8 hPa Calm     85 % 0 mm 0.0 W/m2 CLR
01:52 -11 °C -12.3 °C 34682.8 hPa Calm     86 % 0 mm 0.0 W/m2 CLR
01:57 -11 °C -12.3 °C 34682.8 hPa Calm     86 % 0 mm 0.0 W/m2 CLR
02:02 -11 °C -12.3 °C 34682.8 hPa Calm     85 % 0 mm 0.0 W/m2 CLR
02:07 -11 °C -12.3 °C 34682.8 hPa Calm     85 % 0 mm 0.0 W/m2 CLR
02:12 -11 °C -12.3 °C 34693 hPa Calm     85 % 0 mm 0.0 W/m2 CLR
02:17 -11.3 °C -12.7 °C 34693 hPa Calm     85 % 0 mm 0.0 W/m2 CLR
02:22 -11.3 °C -12.7 °C 34693 hPa Calm     84 % 0 mm 0.0 W/m2 CLR
02:27 -11.3 °C -12.7 °C 34693 hPa Calm     85 % 0 mm 0.0 W/m2 CLR
02:32 -11.3 °C -12.6 °C 34693 hPa Calm     86 % 0 mm 0.0 W/m2 CLR
02:37 -11.3 °C -12.6 °C 34693 hPa Calm     86 % 0 mm 0.0 W/m2 CLR
02:42 -11.3 °C -12.4 °C 34693 hPa Calm     87 % 0 mm 0.0 W/m2 CLR
02:47 -11 °C -12.3 °C 34693 hPa Calm     86 % 0 mm 0.0 W/m2 CLR
02:52 -11 °C -12.2 °C 34693 hPa Calm     87 % 0 mm 0.0 W/m2 CLR
02:57 -11 °C -12.2 °C 34693 hPa Calm     87 % 0 mm 0.0 W/m2 CLR
03:02 -11.3 °C -12.4 °C 34693 hPa Calm     87 % 0 mm 0.0 W/m2 CLR
03:07 -11.3 °C -12.4 °C 34693 hPa Calm     87 % 0 mm 0.0 W/m2 CLR
03:12 -11.3 °C -12.4 °C 34693 hPa Calm     87 % 0 mm 0.0 W/m2 CLR
03:17 -11.3 °C -12.4 °C 34693 hPa Calm     87 % 0 mm 0.0 W/m2 CLR
03:22 -11.6 °C -12.7 °C 34693 hPa Calm     87 % 0 mm 0.0 W/m2 CLR
03:27 -11.6 °C -12.7 °C 34703.1 hPa Calm     87 % 0 mm 0.0 W/m2 CLR
03:32 -11.6 °C -12.7 °C 34693 hPa Calm     87 % 0 mm 0.0 W/m2 CLR
03:37 -11.6 °C -12.7 °C 34703.1 hPa Calm     88 % 0 mm 0.0 W/m2 CLR
03:42 -11.6 °C -12.7 °C 34693 hPa Calm     88 % 0 mm 0.0 W/m2 CLR
03:47 -11.6 °C -12.6 °C 34693 hPa Calm     89 % 0 mm 0.0 W/m2 CLR
03:52 -11.6 °C -12.6 °C 34693 hPa Calm     89 % 0 mm 0.0 W/m2 CLR
03:57 -11.6 °C -12.7 °C 34693 hPa Calm     88 % 0 mm 0.0 W/m2 CLR
04:02 -11.6 °C -12.7 °C 34693 hPa Calm     88 % 0 mm 0.0 W/m2 CLR
04:07 -11.6 °C -12.7 °C 34693 hPa Calm     88 % 0 mm 0.0 W/m2 CLR
04:12 -11.9 °C -12.9 °C 34693 hPa Calm     89 % 0 mm 0.0 W/m2 CLR
04:17 -11.9 °C -12.9 °C 34693 hPa Calm     88 % 0 mm 0.0 W/m2 CLR
04:22 -11.9 °C -12.9 °C 34693 hPa Calm     88 % 0 mm 0.0 W/m2 CLR
04:27 -11.9 °C -12.9 °C 34693 hPa Calm     88 % 0 mm 0.0 W/m2 CLR
04:32 -11.9 °C -12.9 °C 34693 hPa Calm     89 % 0 mm 0.0 W/m2 CLR
04:37 -11.9 °C -12.9 °C 34693 hPa Calm     89 % 0 mm 0.0 W/m2 CLR
04:42 -11.9 °C -12.9 °C 34693 hPa Calm     89 % 0 mm 0.0 W/m2 CLR
04:47 -11.9 °C -12.9 °C 34693 hPa Calm     89 % 0 mm 0.0 W/m2 CLR
04:52 -11.9 °C -12.9 °C 34693 hPa Calm     89 % 0 mm 0.0 W/m2 CLR
04:57 -11.9 °C -12.9 °C 34693 hPa Calm     89 % 0 mm 0.0 W/m2 CLR
05:02 -11.9 °C -12.9 °C 34693 hPa Calm     89 % 0 mm 0.0 W/m2 CLR
05:07 -11.9 °C -12.8 °C 34693 hPa Calm     90 % 0 mm 0.0 W/m2 CLR
05:12 -11.9 °C -12.9 °C 34693 hPa Calm     89 % 0 mm 0.0 W/m2 CLR
05:17 -11.9 °C -12.8 °C 34693 hPa Calm     90 % 0 mm 0.0 W/m2 CLR
05:23 -12.2 °C -13.1 °C 34693 hPa Calm     90 % 0 mm 0.0 W/m2 CLR
05:28 -12.2 °C -13.1 °C 34693 hPa Calm     90 % 0 mm 0.0 W/m2 CLR
05:33 -11.9 °C -12.8 °C 34693 hPa Calm     90 % 0 mm 0.0 W/m2 CLR
05:38 -12.2 °C -13.1 °C 34693 hPa Calm     90 % 0 mm 0.0 W/m2 CLR
05:43 -12.2 °C -13.1 °C 34693 hPa Calm     90 % 0 mm 0.0 W/m2 CLR
05:48 -12.2 °C -13.1 °C 34693 hPa Calm     90 % 0 mm 0.0 W/m2 CLR
05:53 -12.2 °C -13.1 °C 34693 hPa Calm     90 % 0 mm 0.0 W/m2 CLR
05:58 -12.2 °C -13.1 °C 34693 hPa Calm     90 % 0 mm 0.0 W/m2 CLR
06:03 -12.2 °C -13.1 °C 34693 hPa Calm     90 % 0 mm 0.0 W/m2 CLR
06:08 -12.2 °C -13.1 °C 34703.1 hPa Calm     90 % 0 mm 0.0 W/m2 CLR
06:13 -12.2 °C -13.1 °C 34703.1 hPa Calm     90 % 0 mm 0.0 W/m2 CLR
06:18 -12.2 °C -13.1 °C 34703.1 hPa Calm     90 % 0 mm 0.0 W/m2 CLR
06:23 -12.2 °C -13.1 °C 34703.1 hPa Calm     90 % 0 mm 0.0 W/m2 CLR
06:28 -12.2 °C -13 °C 34703.1 hPa Calm     91 % 0 mm 0.0 W/m2 CLR
06:33 -12.2 °C -13 °C 34703.1 hPa Calm     91 % 0 mm 0.0 W/m2 CLR
06:38 -12.2 °C -13 °C 34703.1 hPa Calm     91 % 0 mm 0.0 W/m2 CLR
06:43 -12.2 °C -13 °C 34703.1 hPa Calm     91 % 0 mm 0.0 W/m2 CLR
06:48 -12.2 °C -13 °C 34703.1 hPa Calm     91 % 0 mm 0.0 W/m2 CLR
06:49 -12.2 °C -13 °C 34703.1 hPa Calm     91 % 0 mm 0.0 W/m2 CLR
06:54 -12.2 °C -13 °C 34703.1 hPa Calm     91 % 0 mm 0.0 W/m2 CLR
06:59 -12.2 °C -13 °C 34716.7 hPa Calm     91 % 0 mm 0.0 W/m2 CLR
07:04 -12.2 °C -13 °C 34716.7 hPa Calm     91 % 0 mm 0.0 W/m2 CLR
07:09 -12.2 °C -13 °C 34716.7 hPa Calm     91 % 0 mm 0.0 W/m2 CLR
07:14 -12.6 °C -13.3 °C 34716.7 hPa Calm     91 % 0 mm 0.0 W/m2 CLR
07:19 -12.6 °C -13.3 °C 34716.7 hPa Calm     91 % 0 mm 0.0 W/m2 CLR
07:24 -12.2 °C -13 °C 34716.7 hPa Calm     91 % 0 mm 0.0 W/m2 CLR
07:29 -12.2 °C -13 °C 34726.8 hPa Calm     91 % 0 mm 0.0 W/m2 CLR
07:34 -12.6 °C -13.3 °C 34716.7 hPa Calm     91 % 0 mm 0.0 W/m2 CLR
07:39 -12.6 °C -13.3 °C 34716.7 hPa Calm     91 % 0 mm 0.0 W/m2 CLR
07:49 -12.6 °C -13.3 °C 34726.8 hPa Calm     91 % 0 mm 0.0 W/m2 OVC
07:54 -12.6 °C -13.3 °C 34726.8 hPa Calm     91 % 0 mm 5.0 W/m2 OVC
07:59 -12.6 °C -13.3 °C 34726.8 hPa Calm     91 % 0 mm 7.0 W/m2 BKN
08:04 -12.6 °C -13.3 °C 34726.8 hPa Calm     91 % 0 mm 11.0 W/m2 BKN
08:09 -12.6 °C -13.3 °C 34726.8 hPa Calm     91 % 0 mm 12.0 W/m2 BKN
08:14 -12.6 °C -13.3 °C 34740.4 hPa Calm     91 % 0 mm 16.0 W/m2 BKN
08:19 -12.6 °C -13.3 °C 34740.4 hPa Calm     91 % 0 mm 23.0 W/m2 BKN
08:24 -12.6 °C -13.3 °C 34740.4 hPa Calm     91 % 0 mm 32.0 W/m2 BKN
08:29 -12.6 °C -13.2 °C 34740.4 hPa Calm     92 % 0 mm 42.0 W/m2 BKN
08:34 -12.6 °C -13.2 °C 34740.4 hPa Calm     92 % 0 mm 51.0 W/m2 SCT
08:39 -12.2 °C -12.9 °C 34740.4 hPa Calm     92 % 0 mm 62.0 W/m2 SCT
08:45 -11.9 °C -12.6 °C 34740.4 hPa Calm     92 % 0 mm 70.0 W/m2 FEW
08:50 -11.9 °C -12.7 °C 34740.4 hPa Calm     91 % 0 mm 77.0 W/m2 FEW
08:55 -11.9 °C -12.7 °C 34740.4 hPa Calm     91 % 0 mm 95.0 W/m2 FEW
09:00 -11.6 °C -12.4 °C 34740.4 hPa Calm     90 % 0 mm 98.0 W/m2 CLR
09:05 -11.6 °C -12.4 °C 34740.4 hPa Calm     90 % 0 mm 90.0 W/m2 CLR
09:10 -11.3 °C -12.2 °C 34740.4 hPa Calm     90 % 0 mm 148.0 W/m2 CLR
09:15 -11.3 °C -12.2 °C 34750.5 hPa Calm     90 % 0 mm 165.0 W/m2 CLR
09:20 -11 °C -12 °C 34750.5 hPa Calm     89 % 0 mm 179.0 W/m2 CLR
09:25 -11 °C -12.1 °C 34750.5 hPa Calm     88 % 0 mm 199.0 W/m2 CLR
09:30 -11 °C -12.2 °C 34750.5 hPa Calm     87 % 0 mm 216.0 W/m2 CLR
09:35 -10.7 °C -11.8 °C 34750.5 hPa Calm     87 % 0 mm 232.0 W/m2 CLR
09:40 -10.4 °C -11.6 °C 34760.7 hPa Calm     86 % 0 mm 248.0 W/m2 CLR
09:45 -10.1 °C -11.4 °C 34760.7 hPa Calm     85 % 0 mm 269.0 W/m2 CLR
09:50 -9.8 °C -11.2 °C 34760.7 hPa Calm     85 % 0 mm 285.0 W/m2 CLR
09:55 -9.4 °C -10.8 °C 34760.7 hPa Calm     85 % 0 mm 299.0 W/m2 CLR
10:00 -9.4 °C -11.1 °C 34760.7 hPa Calm     83 % 0 mm 315.0 W/m2 CLR
10:05 -9.4 °C -11.2 °C 34760.7 hPa Calm     81 % 0 mm 329.0 W/m2 CLR
10:10 -9.1 °C -10.9 °C 34760.7 hPa Calm     81 % 0 mm 345.0 W/m2 CLR
10:15 -8.8 °C -10.7 °C 34760.7 hPa Calm     80 % 0 mm 359.0 W/m2 CLR
10:20 -8.5 °C -10.4 °C 34760.7 hPa Calm     80 % 0 mm 373.0 W/m2 CLR
10:25 -8.2 °C -10.2 °C 34760.7 hPa Calm     80 % 0 mm 385.0 W/m2 CLR
10:30 -8.2 °C -10.2 °C 34760.7 hPa Calm     80 % 0 mm 403.0 W/m2 CLR
10:35 -7.9 °C -9.9 °C 34760.7 hPa Calm     79 % 0 mm 420.0 W/m2 CLR
10:37 -7.9 °C -9.9 °C 34760.7 hPa Calm     79 % 0 mm 424.0 W/m2 CLR
10:42 -7.9 °C -9.9 °C 34760.7 hPa Calm     79 % 0 mm 432.0 W/m2 CLR
10:47 -7.6 °C -9.8 °C 34760.7 hPa Calm     78 % 0 mm 448.0 W/m2 CLR
10:52 -7.6 °C -9.9 °C 34760.7 hPa Calm     77 % 0 mm 459.0 W/m2 CLR
10:57 -7.6 °C -10 °C 34760.7 hPa Calm     76 % 0 mm 473.0 W/m2 CLR
11:02 -7.3 °C -9.7 °C 34760.7 hPa Calm     76 % 0 mm 482.0 W/m2 CLR
11:07 -7.3 °C -9.8 °C 34760.7 hPa Calm     75 % 0 mm 492.0 W/m2 CLR
11:12 -7 °C -9.6 °C 34760.7 hPa Calm     74 % 0 mm 501.0 W/m2 CLR
11:17 -7 °C -9.7 °C 34760.7 hPa Calm     73 % 0 mm 519.0 W/m2 CLR
11:22 -6.7 °C -9.4 °C 34760.7 hPa Calm     73 % 0 mm 536.0 W/m2 CLR
11:27 -6.7 °C -9.6 °C 34750.5 hPa Calm     72 % 0 mm 547.0 W/m2 CLR
11:32 -6.7 °C -9.7 °C 34750.5 hPa Calm     71 % 0 mm 554.0 W/m2 CLR
11:37 -6.3 °C -9.5 °C 34750.5 hPa Calm     70 % 0 mm 555.0 W/m2 CLR
11:42 -6.3 °C -9.6 °C 34750.5 hPa North 11.9 km/h 11.9 km/h 69 % 0 mm 570.0 W/m2 CLR
11:47 -6.1 °C -9.3 °C 34750.5 hPa NNW 20.9 km/h 20.9 km/h 69 % 0 mm 582.0 W/m2 CLR
11:52 -6.1 °C -9.1 °C 34750.5 hPa Calm     71 % 0 mm 592.0 W/m2 CLR
11:57 -5.7 °C -9.1 °C 34750.5 hPa WNW 9 km/h 9 km/h 69 % 0 mm 605.0 W/m2 CLR
12:02 -5.7 °C -9.1 °C 34750.5 hPa NW 11.9 km/h 11.9 km/h 69 % 0 mm 603.0 W/m2 CLR
12:07 -5.7 °C -9.1 °C 34750.5 hPa NNW 9 km/h 9 km/h 69 % 0 mm 622.0 W/m2 CLR
12:08 -5.7 °C -9.1 °C 34750.5 hPa NNW 17.9 km/h 17.9 km/h 69 % 0 mm 626.0 W/m2 CLR
12:13 -5.4 °C -8.7 °C 34750.5 hPa NNW 10.3 km/h 10.3 km/h 69 % 0 mm 628.0 W/m2 CLR
12:18 -5.4 °C -9 °C 34750.5 hPa NNW 15.6 km/h 15.6 km/h 67 % 0 mm 640.0 W/m2 CLR
12:23 -5.4 °C -9.1 °C 34740.4 hPa North 9 km/h 9 km/h 66 % 0 mm 645.0 W/m2 CLR
12:28 -5.1 °C -8.8 °C 34740.4 hPa Calm     66 % 0 mm 626.0 W/m2 CLR
12:33 -5.1 °C -8.8 °C 34740.4 hPa West 3.1 km/h 3.1 km/h 66 % 0 mm 643.0 W/m2 CLR
12:38 -5.1 °C -9 °C 34740.4 hPa WNW 15 km/h 15 km/h 65 % 0 mm 649.0 W/m2 CLR
12:43 -5.1 °C -9 °C 34740.4 hPa NW 9 km/h   65 % 0 mm 666.0 W/m2 CLR
12:48 -4.8 °C -8.9 °C 34740.4 hPa WSW 17.9 km/h 17.9 km/h 63 % 0 mm 677.0 W/m2 CLR
12:58 -4.5 °C -8.7 °C 34726.8 hPa NNW 20.9 km/h 20.9 km/h 63 % 0 mm 693.0 W/m2 CLR
13:03 -4.5 °C -8.8 °C 34726.8 hPa NNW 20.8 km/h 20.8 km/h 62 % 0 mm 691.0 W/m2 CLR
13:08 -4.5 °C -8.8 °C 34726.8 hPa NNE 11.9 km/h 11.9 km/h 62 % 0 mm 689.0 W/m2 CLR
13:13 -4.2 °C -8.7 °C 34726.8 hPa Calm     61 % 0 mm 666.0 W/m2 CLR
13:18 -4.2 °C -8.5 °C 34716.7 hPa Calm     62 % 0 mm 712.0 W/m2 CLR
13:23 -4.2 °C -8.7 °C 34716.7 hPa NW 12.9 km/h 12.9 km/h 61 % 0 mm 657.0 W/m2 CLR
13:28 -4.2 °C -8.7 °C 34716.7 hPa WNW 9 km/h 9 km/h 61 % 0 mm 719.0 W/m2 CLR
13:33 -4.2 °C -8.9 °C 34716.7 hPa WNW 23.8 km/h 23.8 km/h 59 % 0 mm 715.0 W/m2 CLR
13:38 -3.9 °C -8.7 °C 34716.7 hPa NNW 23.3 km/h 23.3 km/h 59 % 0 mm 721.0 W/m2 CLR
13:43 -3.9 °C -8.7 °C 34703.1 hPa NNW 15 km/h 15 km/h 59 % 0 mm 719.0 W/m2 CLR
13:48 -3.6 °C -8.7 °C 34703.1 hPa NNW 9 km/h 9 km/h 57 % 0 mm 722.0 W/m2 CLR
13:53 -3.6 °C -8.8 °C 34703.1 hPa NW 20.8 km/h 20.8 km/h 56 % 0 mm 721.0 W/m2 CLR
13:58 -3.6 °C -8.7 °C 34703.1 hPa NNW 20.9 km/h 20.9 km/h 57 % 0 mm 724.0 W/m2 CLR
14:03 -3.6 °C -9 °C 34703.1 hPa NW 26.9 km/h 26.9 km/h 55 % 0 mm 726.0 W/m2 CLR
14:08 -3.6 °C -9 °C 34693 hPa West 11.9 km/h   55 % 0 mm 707.0 W/m2 CLR
14:13 -3.6 °C -9 °C 34693 hPa WNW 29.8 km/h 29.8 km/h 55 % 0 mm 726.0 W/m2 CLR
14:18 -3.6 °C -9 °C 34693 hPa North 26.9 km/h 26.9 km/h 55 % 0 mm 717.0 W/m2 CLR
14:23 -3.6 °C -9.1 °C 34693 hPa North 29.8 km/h 29.8 km/h 54 % 0 mm 724.0 W/m2 CLR
14:28 -2.9 °C -8.9 °C 34693 hPa NNW 26.9 km/h 26.9 km/h 52 % 0 mm 710.0 W/m2 CLR
14:33 -2.9 °C -9.1 °C 34682.8 hPa NE 23.8 km/h 23.8 km/h 51 % 0 mm 700.0 W/m2 CLR
14:38 -2.7 °C -8.8 °C 34682.8 hPa NNW 12.9 km/h 12.9 km/h 51 % 0 mm 694.0 W/m2 CLR
14:44 -2.7 °C -8.8 °C 34682.8 hPa NW 11.9 km/h   51 % 0 mm 714.0 W/m2 CLR
14:49 -2.7 °C -8.8 °C 34682.8 hPa Calm     51 % 0 mm 606.0 W/m2 CLR
14:54 -2.9 °C -9.1 °C 34682.8 hPa NNE 20.9 km/h 20.9 km/h 51 % 0 mm 661.0 W/m2 CLR
14:59 -2.7 °C -8.9 °C 34682.8 hPa North 23.8 km/h 23.8 km/h 50 % 0 mm 631.0 W/m2 CLR
15:04 -2.7 °C -8.9 °C 34669.3 hPa Calm     50 % 0 mm 592.0 W/m2 CLR
15:09 -2.9 °C -9.2 °C 34669.3 hPa NNW 23.8 km/h 23.8 km/h 50 % 0 mm 649.0 W/m2 CLR
15:14 -2.9 °C -9.4 °C 34669.3 hPa North 17.9 km/h 17.9 km/h 49 % 0 mm 631.0 W/m2 CLR
15:19 -2.9 °C -9.6 °C 34669.3 hPa West 11.9 km/h 11.9 km/h 48 % 0 mm 543.0 W/m2 CLR
15:24 -2.9 °C -9.6 °C 34669.3 hPa WNW 15 km/h 15 km/h 48 % 0 mm 592.0 W/m2 CLR
15:29 -2.7 °C -9.3 °C 34669.3 hPa NE 7.7 km/h 7.7 km/h 48 % 0 mm 628.0 W/m2 CLR
15:34 -2.7 °C -9.1 °C 34669.3 hPa Calm     49 % 0 mm 603.0 W/m2 CLR
15:39 -2.9 °C -9.4 °C 34669.3 hPa North 29.8 km/h 29.8 km/h 49 % 0 mm 601.0 W/m2 CLR
15:44 -2.9 °C -9.4 °C 34659.1 hPa NNE 29.8 km/h 29.8 km/h 49 % 0 mm 568.0 W/m2 CLR
15:49 -2.9 °C -9.1 °C 34659.1 hPa North 32.8 km/h 32.8 km/h 51 % 0 mm 605.0 W/m2 CLR
15:54 -2.9 °C -9.1 °C 34659.1 hPa NNE 29.8 km/h 29.8 km/h 51 % 0 mm 629.0 W/m2 CLR
15:59 -2.9 °C -9.1 °C 34659.1 hPa NE 32.8 km/h 32.8 km/h 51 % 0 mm 578.0 W/m2 CLR
16:04 -2.9 °C -9.2 °C 34659.1 hPa NE 29.8 km/h 29.8 km/h 50 % 0 mm 543.0 W/m2 CLR
16:09 -2.9 °C -9.1 °C 34659.1 hPa North 29.8 km/h 29.8 km/h 51 % 0 mm 529.0 W/m2 CLR
16:14 -2.9 °C -8.9 °C 34659.1 hPa North 38.8 km/h 38.8 km/h 52 % 0 mm 548.0 W/m2 CLR
16:19 -2.9 °C -8.9 °C 34659.1 hPa North 31.1 km/h 31.1 km/h 52 % 0 mm 548.0 W/m2 CLR
16:24 -2.9 °C -8.7 °C 34659.1 hPa NNE 29.8 km/h 29.8 km/h 53 % 0 mm 559.0 W/m2 CLR
16:29 -2.9 °C -8.7 °C 34659.1 hPa North 38.8 km/h 38.8 km/h 53 % 0 mm 531.0 W/m2 CLR
16:34 -2.9 °C -8.7 °C 34659.1 hPa North 29.8 km/h 29.8 km/h 53 % 0 mm 508.0 W/m2 CLR
16:39 -2.9 °C -8.7 °C 34659.1 hPa NNE 9 km/h 9 km/h 53 % 0 mm 439.0 W/m2 CLR
16:44 -2.9 °C -8.7 °C 34659.1 hPa NNE 41.7 km/h 41.7 km/h 53 % 0 mm 120.0 W/m2 CLR
16:49 -2.9 °C -8.6 °C 34659.1 hPa NE 35.7 km/h 35.7 km/h 54 % 0 mm 471.0 W/m2 CLR
16:54 -2.9 °C -8.6 °C 34659.1 hPa NE 29.8 km/h 29.8 km/h 54 % 0 mm 462.0 W/m2 CLR
16:59 -2.9 °C -8.6 °C 34659.1 hPa NNW 29.8 km/h 29.8 km/h 54 % 0 mm 445.0 W/m2 CLR
17:04 -2.9 °C -8.6 °C 34645.6 hPa NNE 23.8 km/h 23.8 km/h 54 % 0 mm 429.0 W/m2 CLR
17:09 -2.9 °C -8.6 °C 34659.1 hPa NE 26.9 km/h 26.9 km/h 54 % 0 mm 417.0 W/m2 CLR
17:14 -3.3 °C -9 °C 34659.1 hPa NNE 29.8 km/h 29.8 km/h 53 % 0 mm 403.0 W/m2 CLR
17:19 -3.3 °C -8.8 °C 34659.1 hPa NNE 23.3 km/h 23.3 km/h 54 % 0 mm 387.0 W/m2 CLR
17:24 -3.3 °C -8.7 °C 34659.1 hPa NE 26.9 km/h 26.9 km/h 55 % 0 mm 376.0 W/m2 CLR
17:29 -3.3 °C -8.7 °C 34659.1 hPa NNE 20.8 km/h 20.8 km/h 55 % 0 mm 357.0 W/m2 CLR
17:34 -3.6 °C -9 °C 34659.1 hPa North 32.8 km/h 32.8 km/h 55 % 0 mm 341.0 W/m2 CLR
17:39 -3.6 °C -9 °C 34659.1 hPa NE 32.8 km/h 32.8 km/h 55 % 0 mm 325.0 W/m2 CLR
17:44 -3.6 °C -8.8 °C 34659.1 hPa NNE 23.8 km/h 23.8 km/h 56 % 0 mm 309.0 W/m2 CLR
17:49 -3.6 °C -8.8 °C 34659.1 hPa NNE 38.8 km/h 38.8 km/h 56 % 0 mm 297.0 W/m2 CLR
17:54 -3.6 °C -8.8 °C 34659.1 hPa NE 29.8 km/h 29.8 km/h 56 % 0 mm 283.0 W/m2 CLR
17:59 -3.9 °C -9.1 °C 34659.1 hPa NNE 32.8 km/h 32.8 km/h 56 % 0 mm 267.0 W/m2 CLR
18:04 -3.9 °C -8.9 °C 34659.1 hPa NE 35.7 km/h 35.7 km/h 57 % 0 mm 248.0 W/m2 CLR
18:09 -3.9 °C -8.9 °C 34659.1 hPa NNE 29.8 km/h 29.8 km/h 57 % 0 mm 237.0 W/m2 CLR
18:14 -3.9 °C -8.9 °C 34659.1 hPa NE 29.8 km/h 29.8 km/h 57 % 0 mm 218.0 W/m2 CLR
18:19 -3.9 °C -8.8 °C 34659.1 hPa NE 35.7 km/h 35.7 km/h 58 % 0 mm 197.0 W/m2 CLR
18:24 -4.2 °C -9.1 °C 34659.1 hPa ENE 28.5 km/h 28.5 km/h 58 % 0 mm 179.0 W/m2 CLR
18:29 -4.2 °C -9.1 °C 34659.1 hPa ENE 35.7 km/h 35.7 km/h 58 % 0 mm 163.0 W/m2 CLR
18:30 -4.2 °C -9.1 °C 34659.1 hPa ENE 35.7 km/h 35.7 km/h 58 % 0 mm 163.0 W/m2 CLR
18:35 -4.2 °C -9.1 °C 34659.1 hPa NE 29.8 km/h 29.8 km/h 58 % 0 mm 144.0 W/m2 CLR
18:40 -4.2 °C -9.1 °C 34659.1 hPa ENE 29.8 km/h 29.8 km/h 58 % 0 mm 128.0 W/m2 CLR
18:45 -4.5 °C -9.2 °C 34659.1 hPa NE 29.8 km/h 29.8 km/h 59 % 0 mm 113.0 W/m2 CLR
18:50 -4.5 °C -9.2 °C 34659.1 hPa East 38.8 km/h 38.8 km/h 59 % 0 mm 98.0 W/m2 CLR
18:55 -4.5 °C -9.2 °C 34659.1 hPa ENE 35.7 km/h 35.7 km/h 59 % 0 mm 83.0 W/m2 FEW
19:00 -4.5 °C -9.2 °C 34659.1 hPa ENE 33.6 km/h 33.6 km/h 59 % 0 mm 63.0 W/m2 FEW
19:05 -4.8 °C -9.4 °C 34659.1 hPa ENE 29.8 km/h 29.8 km/h 60 % 0 mm 56.0 W/m2 SCT
19:10 -4.8 °C -9.4 °C 34669.3 hPa East 23.8 km/h 23.8 km/h 60 % 0 mm 46.0 W/m2 SCT
19:15 -4.8 °C -9.4 °C 34669.3 hPa East 26.9 km/h 26.9 km/h 60 % 0 mm 33.0 W/m2 BKN
19:20 -5.1 °C -9.5 °C 34669.3 hPa ENE 29.8 km/h 29.8 km/h 61 % 0 mm 25.0 W/m2 BKN
19:25 -5.4 °C -9.7 °C 34669.3 hPa East 32.8 km/h 32.8 km/h 62 % 0 mm 18.0 W/m2 BKN
19:30 -5.4 °C -9.7 °C 34669.3 hPa East 26.9 km/h 26.9 km/h 62 % 0 mm 14.0 W/m2 BKN
19:35 -5.7 °C -9.9 °C 34669.3 hPa ENE 26.9 km/h 26.9 km/h 62 % 0 mm 11.0 W/m2 BKN
19:40 -6.1 °C -10.1 °C 34669.3 hPa ENE 12.9 km/h 12.9 km/h 63 % 0 mm 7.0 W/m2 BKN
19:45 -6.1 °C -10.1 °C 34669.3 hPa NE 11.9 km/h 11.9 km/h 63 % 0 mm 5.0 W/m2 OVC
19:50 -6.1 °C -9.9 °C 34669.3 hPa ENE 23.8 km/h 23.8 km/h 64 % 0 mm 0.0 W/m2 OVC
19:55 -6.3 °C -10.3 °C 34669.3 hPa East 18.2 km/h 18.2 km/h 64 % 0 mm 0.0 W/m2 OVC
20:00 -6.3 °C -10.2 °C 34669.3 hPa East 11.9 km/h 11.9 km/h 65 % 0 mm 0.0 W/m2 CLR
20:05 -6.7 °C -10.4 °C 34682.8 hPa NE 12.9 km/h 12.9 km/h 65 % 0 mm 0.0 W/m2 CLR
20:10 -6.7 °C -10.4 °C 34682.8 hPa ENE 10.3 km/h 10.3 km/h 65 % 0 mm 0.0 W/m2 CLR
20:15 -7 °C -10.6 °C 34682.8 hPa ENE 11.9 km/h 11.9 km/h 66 % 0 mm 0.0 W/m2 CLR
20:20 -7.3 °C -10.9 °C 34682.8 hPa ENE 15 km/h 15 km/h 66 % 0 mm 0.0 W/m2 CLR
20:25 -7.6 °C -11.2 °C 34682.8 hPa ENE 12.9 km/h 12.9 km/h 66 % 0 mm 0.0 W/m2 CLR
20:30 -7.6 °C -11.1 °C 34682.8 hPa ENE 11.9 km/h 11.9 km/h 67 % 0 mm 0.0 W/m2 CLR
20:35 -7.9 °C -11.3 °C 34682.8 hPa ENE 11.9 km/h 11.9 km/h 67 % 0 mm 0.0 W/m2 CLR
20:36 -7.9 °C -11.3 °C 34682.8 hPa ENE 12.9 km/h 12.9 km/h 67 % 0 mm 0.0 W/m2 CLR
20:41 -7.9 °C -11.3 °C 34682.8 hPa NE 9 km/h 9 km/h 67 % 0 mm 0.0 W/m2 CLR
20:46 -7.9 °C -11.2 °C 34682.8 hPa ENE 17.9 km/h 17.9 km/h 68 % 0 mm 0.0 W/m2 CLR
20:51 -8.2 °C -11.5 °C 34682.8 hPa ENE 17.9 km/h 17.9 km/h 68 % 0 mm 0.0 W/m2 CLR
20:56 -8.2 °C -11.5 °C 34682.8 hPa ENE 15 km/h 15 km/h 68 % 0 mm 0.0 W/m2 CLR
21:01 -8.2 °C -11.5 °C 34693 hPa NE 20.9 km/h 20.9 km/h 68 % 0 mm 0.0 W/m2 CLR
21:06 -8.2 °C -11.4 °C 34693 hPa NE 11.9 km/h 11.9 km/h 69 % 0 mm 0.0 W/m2 CLR
21:11 -8.2 °C -11.4 °C 34693 hPa ENE 11.9 km/h 11.9 km/h 69 % 0 mm 0.0 W/m2 CLR
21:16 -8.5 °C -11.7 °C 34693 hPa ENE 11.9 km/h 11.9 km/h 69 % 0 mm 0.0 W/m2 CLR
21:21 -8.5 °C -11.6 °C 34693 hPa Calm     70 % 0 mm 0.0 W/m2 CLR
21:26 -8.5 °C -11.6 °C 34693 hPa ENE 10.3 km/h 10.3 km/h 70 % 0 mm 0.0 W/m2 CLR
21:31 -8.5 °C -11.6 °C 34693 hPa Calm     70 % 0 mm 0.0 W/m2 CLR
21:36 -8.8 °C -11.9 °C 34693 hPa Calm     70 % 0 mm 0.0 W/m2 CLR
21:41 -8.8 °C -11.9 °C 34693 hPa Calm     70 % 0 mm 0.0 W/m2 CLR
21:46 -8.8 °C -11.8 °C 34693 hPa Calm     71 % 0 mm 0.0 W/m2 CLR
21:51 -9.1 °C -12.1 °C 34693 hPa Calm     71 % 0 mm 0.0 W/m2 CLR
21:56 -9.1 °C -12.1 °C 34703.1 hPa Calm     71 % 0 mm 0.0 W/m2 CLR
22:01 -9.4 °C -12.3 °C 34703.1 hPa Calm     71 % 0 mm 0.0 W/m2 CLR
22:06 -9.4 °C -12.2 °C 34703.1 hPa Calm     72 % 0 mm 0.0 W/m2 CLR
22:11 -9.4 °C -12.1 °C 34703.1 hPa Calm     73 % 0 mm 0.0 W/m2 CLR
22:16 -9.4 °C -12.1 °C 34703.1 hPa Calm     73 % 0 mm 0.0 W/m2 CLR
22:21 -9.8 °C -12.4 °C 34703.1 hPa Calm     73 % 0 mm 0.0 W/m2 CLR
22:26 -9.8 °C -12.4 °C 34703.1 hPa Calm     73 % 0 mm 0.0 W/m2 CLR
22:31 -9.8 °C -12.4 °C 34703.1 hPa Calm     73 % 0 mm 0.0 W/m2 CLR
22:32 -9.8 °C -12.4 °C 34703.1 hPa Calm     73 % 0 mm 0.0 W/m2 CLR
22:37 -9.8 °C -12.4 °C 34703.1 hPa Calm     73 % 0 mm 0.0 W/m2 CLR
22:42 -9.8 °C -12.4 °C 34703.1 hPa Calm     73 % 0 mm 0.0 W/m2 CLR
22:47 -10.1 °C -12.7 °C 34703.1 hPa Calm     73 % 0 mm 0.0 W/m2 CLR
22:52 -10.1 °C -12.7 °C 34703.1 hPa Calm     73 % 0 mm 0.0 W/m2 CLR
22:57 -10.1 °C -12.6 °C 34703.1 hPa Calm     74 % 0 mm 0.0 W/m2 CLR
23:02 -10.1 °C -12.6 °C 34703.1 hPa Calm     74 % 0 mm 0.0 W/m2 CLR
23:07 -10.1 °C -12.4 °C 34703.1 hPa Calm     75 % 0 mm 0.0 W/m2 CLR
23:12 -10.4 °C -12.8 °C 34703.1 hPa Calm     75 % 0 mm 0.0 W/m2 CLR
23:17 -10.4 °C -12.7 °C 34703.1 hPa Calm     76 % 0 mm 0.0 W/m2 CLR
23:22 -10.4 °C -12.6 °C 34703.1 hPa Calm     77 % 0 mm 0.0 W/m2 CLR
23:27 -10.4 °C -12.6 °C 34716.7 hPa Calm     77 % 0 mm 0.0 W/m2 CLR
23:32 -10.4 °C -12.4 °C 34716.7 hPa Calm     78 % 0 mm 0.0 W/m2 CLR
23:37 -10.4 °C -12.3 °C 34716.7 hPa Calm     79 % 0 mm 0.0 W/m2 CLR
23:42 -10.4 °C -12.3 °C 34716.7 hPa Calm     80 % 0 mm 0.0 W/m2 CLR
23:47 -10.4 °C -12.3 °C 34703.1 hPa Calm     80 % 0 mm 0.0 W/m2 CLR
23:52 -10.4 °C -12.1 °C 34716.7 hPa Calm     81 % 0 mm 0.0 W/m2 CLR
23:57 -10.7 °C -12.4 °C 34703.1 hPa Calm     81 % 0 mm 0.0 W/m2 CLR
Lo Temps de Massalio
Compliments of Weather Underground - 1.25 mb